createdAt,value
2022-12-17T00:00:30.189Z,-2.00
2022-12-17T00:02:58.360Z,-2.00
2022-12-17T00:05:25.122Z,-1.90
2022-12-17T00:08:00.916Z,-1.90
2022-12-17T00:10:27.509Z,-2.00
2022-12-17T00:12:56.457Z,-2.10
2022-12-17T00:15:24.228Z,-2.00
2022-12-17T00:17:50.893Z,-2.00
2022-12-17T00:20:18.571Z,-2.00
2022-12-17T00:22:45.217Z,-2.00
2022-12-17T00:25:11.806Z,-2.00
2022-12-17T00:27:38.366Z,-2.00
2022-12-17T00:30:05.373Z,-1.90
2022-12-17T00:32:32.005Z,-2.00
2022-12-17T00:34:58.585Z,-1.90
2022-12-17T00:37:25.157Z,-2.10
2022-12-17T00:39:57.642Z,-2.10
2022-12-17T00:42:25.760Z,-2.00
2022-12-17T00:44:52.373Z,-2.00
2022-12-17T00:47:18.952Z,-2.00
2022-12-17T00:49:45.600Z,-2.00
2022-12-17T00:52:12.191Z,-2.10
2022-12-17T00:54:38.781Z,-2.20
2022-12-17T00:57:05.466Z,-2.30
2022-12-17T00:59:32.201Z,-2.30
2022-12-17T01:01:58.888Z,-2.30
2022-12-17T01:04:25.492Z,-2.10
2022-12-17T01:06:52.247Z,-2.00
2022-12-17T01:09:20.216Z,-2.20
2022-12-17T01:11:46.826Z,-2.30
2022-12-17T01:14:14.785Z,-2.30
2022-12-17T01:16:41.444Z,-2.40
2022-12-17T01:19:08.077Z,-2.40
2022-12-17T01:21:34.658Z,-2.50
2022-12-17T01:24:01.220Z,-2.40
2022-12-17T01:26:27.792Z,-2.40
2022-12-17T01:28:56.414Z,-2.40
2022-12-17T01:31:23.126Z,-2.40
2022-12-17T01:33:49.758Z,-2.30
2022-12-17T01:36:16.332Z,-2.30
2022-12-17T01:38:43.588Z,-2.30
2022-12-17T01:41:10.769Z,-2.30
2022-12-17T01:43:38.849Z,-2.40
2022-12-17T01:46:05.636Z,-2.50
2022-12-17T01:48:39.881Z,-2.60
2022-12-17T01:51:06.526Z,-2.60
2022-12-17T01:53:40.333Z,-2.60
2022-12-17T01:56:07.786Z,-2.60
2022-12-17T01:58:36.123Z,-2.60
2022-12-17T02:01:02.784Z,-2.70
2022-12-17T02:03:29.377Z,-2.70
2022-12-17T02:06:23.046Z,-2.60
2022-12-17T02:09:07.111Z,-2.60
2022-12-17T02:11:51.877Z,-2.60
2022-12-17T02:14:25.447Z,-2.60
2022-12-17T02:16:59.311Z,-2.50
2022-12-17T02:19:39.839Z,-2.60
2022-12-17T02:22:18.296Z,-2.50
2022-12-17T02:24:52.248Z,-2.50
2022-12-17T02:27:19.120Z,-2.50
2022-12-17T02:29:55.791Z,-2.60
2022-12-17T02:32:24.802Z,-2.60
2022-12-17T02:34:52.855Z,-2.60
2022-12-17T02:37:19.416Z,-2.60
2022-12-17T02:39:46.239Z,-2.70
2022-12-17T02:42:13.179Z,-2.70
2022-12-17T02:44:42.312Z,-2.70
2022-12-17T02:47:10.603Z,-2.80
2022-12-17T02:49:37.356Z,-2.90
2022-12-17T02:52:04.801Z,-2.90
2022-12-17T02:54:32.973Z,-2.90
2022-12-17T02:56:59.610Z,-3.00
2022-12-17T02:59:26.194Z,-3.20
2022-12-17T03:01:52.860Z,-3.20
2022-12-17T03:04:19.646Z,-3.30
2022-12-17T03:06:46.249Z,-3.20
2022-12-17T03:09:12.839Z,-3.40
2022-12-17T03:11:39.442Z,-3.40
2022-12-17T03:14:06.026Z,-3.50
2022-12-17T03:16:37.233Z,-3.60
2022-12-17T03:19:04.462Z,-3.50
2022-12-17T03:21:31.046Z,-3.50
2022-12-17T03:23:57.650Z,-3.60
2022-12-17T03:26:24.268Z,-3.70
2022-12-17T03:28:50.883Z,-3.70
2022-12-17T03:31:17.515Z,-3.70
2022-12-17T03:33:44.394Z,-3.80
2022-12-17T03:36:10.962Z,-3.80
2022-12-17T03:38:37.548Z,-3.80
2022-12-17T03:41:04.200Z,-3.80
2022-12-17T03:43:30.760Z,-3.90
2022-12-17T03:45:57.510Z,-4.00
2022-12-17T03:48:24.176Z,-4.10
2022-12-17T03:50:52.400Z,-4.20
2022-12-17T03:53:18.986Z,-4.20
2022-12-17T03:55:45.562Z,-4.30
2022-12-17T03:58:12.148Z,-4.40
2022-12-17T04:00:38.732Z,-4.40
2022-12-17T04:03:05.315Z,-4.50
2022-12-17T04:05:31.922Z,-4.50
2022-12-17T04:07:58.492Z,-4.50
2022-12-17T04:10:25.073Z,-4.60
2022-12-17T04:12:51.670Z,-4.60
2022-12-17T04:15:18.295Z,-4.70
2022-12-17T04:17:44.880Z,-4.60
2022-12-17T04:20:11.768Z,-4.70
2022-12-17T04:22:38.354Z,-4.80
2022-12-17T04:25:05.406Z,-4.80
2022-12-17T04:27:32.142Z,-4.80
2022-12-17T04:29:58.716Z,-4.90
2022-12-17T04:32:25.290Z,-4.90
2022-12-17T04:34:51.899Z,-5.00
2022-12-17T04:37:18.466Z,-5.00
2022-12-17T04:39:45.059Z,-5.10
2022-12-17T04:42:11.770Z,-5.10
2022-12-17T04:44:38.370Z,-5.10
2022-12-17T04:47:04.948Z,-5.20
2022-12-17T04:49:31.540Z,-5.30
2022-12-17T04:51:58.126Z,-5.30
2022-12-17T04:54:24.715Z,-5.30
2022-12-17T04:56:51.550Z,-5.30
2022-12-17T04:59:18.149Z,-5.40
2022-12-17T05:01:44.836Z,-5.40
2022-12-17T05:04:11.562Z,-5.40
2022-12-17T05:06:38.145Z,-5.50
2022-12-17T05:09:04.732Z,-5.50
2022-12-17T05:11:31.403Z,-5.50
2022-12-17T05:13:57.970Z,-5.50
2022-12-17T05:16:24.624Z,-5.60
2022-12-17T05:18:51.282Z,-5.60
2022-12-17T05:21:17.862Z,-5.60
2022-12-17T05:23:44.467Z,-5.60
2022-12-17T05:26:18.338Z,-5.70
2022-12-17T05:28:45.000Z,-5.70
2022-12-17T05:31:11.633Z,-5.70
2022-12-17T05:33:38.739Z,-5.60
2022-12-17T05:36:05.914Z,-5.70
2022-12-17T05:38:32.547Z,-5.80
2022-12-17T05:41:00.071Z,-5.90
2022-12-17T05:43:26.660Z,-5.90
2022-12-17T05:45:53.222Z,-6.00
2022-12-17T05:48:19.814Z,-6.00
2022-12-17T05:50:50.428Z,-6.00
2022-12-17T05:53:17.016Z,-6.00
2022-12-17T05:55:47.841Z,-6.10
2022-12-17T05:58:14.427Z,-6.20
2022-12-17T06:00:41.020Z,-6.20
2022-12-17T06:03:09.467Z,-6.10
2022-12-17T06:05:36.090Z,-6.20
2022-12-17T06:08:04.849Z,-6.20
2022-12-17T06:10:31.460Z,-6.30
2022-12-17T06:12:58.076Z,-6.30
2022-12-17T06:15:24.664Z,-6.40
2022-12-17T06:17:55.874Z,-6.40
2022-12-17T06:20:22.460Z,-6.50
2022-12-17T06:23:01.080Z,-6.50
2022-12-17T06:25:27.692Z,-6.40
2022-12-17T06:28:01.274Z,-6.50
2022-12-17T06:30:28.066Z,-6.60
2022-12-17T06:33:06.761Z,-6.60
2022-12-17T06:35:33.393Z,-6.60
2022-12-17T06:38:01.699Z,-6.60
2022-12-17T06:40:28.361Z,-6.60
2022-12-17T06:42:56.529Z,-6.70
2022-12-17T06:45:23.123Z,-6.60
2022-12-17T06:47:49.689Z,-6.60
2022-12-17T06:50:16.280Z,-6.70
2022-12-17T06:52:42.842Z,-6.70
2022-12-17T06:55:09.779Z,-6.70
2022-12-17T06:57:40.472Z,-6.80
2022-12-17T07:00:09.257Z,-6.90
2022-12-17T07:02:37.168Z,-7.00
2022-12-17T07:05:04.125Z,-7.00
2022-12-17T07:07:30.815Z,-7.00
2022-12-17T07:09:57.405Z,-7.00
2022-12-17T07:12:24.014Z,-7.10
2022-12-17T07:14:50.587Z,-6.90
2022-12-17T07:17:17.203Z,-6.80
2022-12-17T07:19:43.854Z,-6.70
2022-12-17T07:22:10.427Z,-6.60
2022-12-17T07:24:37.096Z,-6.70
2022-12-17T07:27:03.769Z,-6.60
2022-12-17T07:29:30.344Z,-6.60
2022-12-17T07:31:56.989Z,-6.50
2022-12-17T07:34:23.831Z,-6.50
2022-12-17T07:36:50.443Z,-6.40
2022-12-17T07:39:17.027Z,-6.40
2022-12-17T07:41:43.629Z,-6.30
2022-12-17T07:44:10.343Z,-6.40
2022-12-17T07:46:37.059Z,-6.30
2022-12-17T07:49:03.868Z,-6.40
2022-12-17T07:51:30.601Z,-6.40
2022-12-17T07:53:57.179Z,-6.40
2022-12-17T07:56:24.073Z,-6.40
2022-12-17T07:58:50.715Z,-6.40
2022-12-17T08:01:17.488Z,-6.30
2022-12-17T08:03:44.400Z,-6.30
2022-12-17T08:06:12.086Z,-6.30
2022-12-17T08:08:38.637Z,-6.30
2022-12-17T08:11:05.217Z,-6.40
2022-12-17T08:13:31.810Z,-6.30
2022-12-17T08:15:58.386Z,-6.30
2022-12-17T08:18:26.874Z,-6.30
2022-12-17T08:20:54.459Z,-6.20
2022-12-17T08:23:21.051Z,-6.20
2022-12-17T08:25:47.676Z,-6.20
2022-12-17T08:28:41.138Z,-6.20
2022-12-17T08:31:00.959Z,-6.10
2022-12-17T08:33:27.675Z,-6.10
2022-12-17T08:35:58.253Z,-6.00
2022-12-17T08:38:24.864Z,-6.10
2022-12-17T08:40:51.531Z,-6.00
2022-12-17T08:43:18.150Z,-6.00
2022-12-17T08:45:49.463Z,-6.00
2022-12-17T08:48:16.146Z,-6.00
2022-12-17T08:50:42.763Z,-6.00
2022-12-17T08:53:09.400Z,-5.90
2022-12-17T08:55:35.980Z,-5.90
2022-12-17T08:58:02.573Z,-5.90
2022-12-17T09:00:29.142Z,-5.80
2022-12-17T09:03:01.607Z,-5.70
2022-12-17T09:05:28.368Z,-5.70
2022-12-17T09:08:02.435Z,-5.60
2022-12-17T09:10:29.089Z,-5.50
2022-12-17T09:12:59.747Z,-5.50
2022-12-17T09:15:32.762Z,-5.40
2022-12-17T09:17:59.349Z,-5.30
2022-12-17T09:20:29.300Z,-5.20
2022-12-17T09:22:56.410Z,-5.20
2022-12-17T09:25:23.011Z,-5.00
2022-12-17T09:27:49.605Z,-4.90
2022-12-17T09:30:16.318Z,-4.90
2022-12-17T09:32:42.935Z,-4.80
2022-12-17T09:35:09.633Z,-4.70
2022-12-17T09:37:36.216Z,-4.60
2022-12-17T09:40:03.071Z,-4.60
2022-12-17T09:42:51.778Z,-4.60
2022-12-17T09:45:26.674Z,-4.50
2022-12-17T09:48:17.702Z,-4.40
2022-12-17T09:50:46.429Z,-4.30
2022-12-17T09:53:24.359Z,-4.30
2022-12-17T09:55:51.789Z,-4.30
2022-12-17T09:58:24.321Z,-4.30
2022-12-17T10:00:57.690Z,-4.30
2022-12-17T10:03:29.670Z,-4.30
2022-12-17T10:05:58.586Z,-4.30
2022-12-17T10:08:25.202Z,-4.30
2022-12-17T10:10:52.994Z,-4.20
2022-12-17T10:13:22.239Z,-4.20
2022-12-17T10:15:48.865Z,-4.20
2022-12-17T10:18:16.741Z,-4.20
2022-12-17T10:20:49.827Z,-4.10
2022-12-17T10:23:27.478Z,-4.00
2022-12-17T10:25:56.203Z,-3.90
2022-12-17T10:28:24.864Z,-3.90
2022-12-17T10:30:51.510Z,-3.90
2022-12-17T10:33:20.211Z,-3.90
2022-12-17T10:35:46.796Z,-3.70
2022-12-17T10:38:24.203Z,-3.70
2022-12-17T10:40:50.848Z,-3.70
2022-12-17T10:43:29.644Z,-3.70
2022-12-17T10:45:57.514Z,-3.60
2022-12-17T10:48:30.199Z,-3.50
2022-12-17T10:50:56.851Z,-3.50
2022-12-17T10:53:25.396Z,-3.50
2022-12-17T10:55:56.907Z,-3.50
2022-12-17T10:58:27.880Z,-3.40
2022-12-17T11:01:00.130Z,-3.40
2022-12-17T11:03:28.876Z,-3.40
2022-12-17T11:05:59.613Z,-3.30
2022-12-17T11:08:27.198Z,-3.10
2022-12-17T11:10:53.810Z,-2.90
2022-12-17T11:13:34.142Z,-2.40
2022-12-17T11:16:02.109Z,-2.20
2022-12-17T11:18:40.139Z,-2.10
2022-12-17T11:21:12.129Z,-1.70
2022-12-17T11:23:42.525Z,-1.40
2022-12-17T11:26:13.973Z,-1.20
2022-12-17T11:28:40.769Z,-1.20
2022-12-17T11:31:13.408Z,-1.10
2022-12-17T11:33:50.639Z,-0.90
2022-12-17T11:36:38.264Z,-0.80
2022-12-17T11:39:10.615Z,-1.00
2022-12-17T11:42:08.143Z,-1.00
2022-12-17T11:44:59.029Z,-0.90
2022-12-17T11:47:28.337Z,-0.60
2022-12-17T11:50:24.132Z,-0.30
2022-12-17T11:53:30.202Z,-0.10
2022-12-17T11:56:11.145Z,0.00
2022-12-17T11:59:07.200Z,-0.10
2022-12-17T12:01:51.155Z,0.20
2022-12-17T12:04:17.756Z,0.40
2022-12-17T12:07:21.873Z,0.40
2022-12-17T12:10:45.543Z,0.40
2022-12-17T12:13:26.720Z,0.50
2022-12-17T12:16:06.936Z,0.40
2022-12-17T12:18:42.534Z,0.40
2022-12-17T12:21:22.256Z,0.60
2022-12-17T12:23:57.864Z,0.40
2022-12-17T12:26:33.397Z,0.40
2022-12-17T12:29:24.310Z,0.60
2022-12-17T12:31:59.197Z,0.60
2022-12-17T12:34:31.169Z,0.80
2022-12-17T12:37:01.933Z,0.80
2022-12-17T12:39:47.683Z,0.80
2022-12-17T12:42:36.399Z,0.70
2022-12-17T12:45:25.511Z,1.00
2022-12-17T12:47:52.106Z,1.10
2022-12-17T12:50:26.049Z,1.00
2022-12-17T12:52:52.762Z,1.30
2022-12-17T12:55:19.341Z,1.60
2022-12-17T12:58:17.926Z,1.60
2022-12-17T13:00:47.272Z,1.30
2022-12-17T13:03:33.713Z,1.20
2022-12-17T13:06:03.038Z,1.10
2022-12-17T13:08:29.624Z,0.80
2022-12-17T13:10:56.307Z,0.60
2022-12-17T13:13:39.470Z,0.30
2022-12-17T13:16:31.898Z,0.00
2022-12-17T13:19:40.290Z,-0.40
2022-12-17T13:22:23.451Z,-0.70
2022-12-17T13:24:56.974Z,-0.70
2022-12-17T13:27:35.744Z,-0.90
2022-12-17T13:30:35.314Z,-0.90
2022-12-17T13:33:29.608Z,-1.00
2022-12-17T13:36:17.580Z,-1.10
2022-12-17T13:39:06.265Z,-1.30
2022-12-17T13:41:35.299Z,-1.20
2022-12-17T13:44:16.043Z,-1.30
2022-12-17T13:46:47.325Z,-1.30
2022-12-17T13:49:18.438Z,-1.40
2022-12-17T13:51:45.253Z,-1.40
2022-12-17T13:54:17.394Z,-1.50
2022-12-17T13:56:45.141Z,-1.40
2022-12-17T13:59:19.504Z,-1.40
2022-12-17T14:01:50.124Z,-1.30
2022-12-17T14:04:30.288Z,-1.40
2022-12-17T14:07:04.547Z,-1.40
2022-12-17T14:09:35.309Z,-1.60
2022-12-17T14:12:04.633Z,-1.80
2022-12-17T14:14:39.741Z,-1.80
2022-12-17T14:17:06.861Z,-1.80
2022-12-17T14:19:34.013Z,-1.80
2022-12-17T14:22:01.167Z,-1.80
2022-12-17T14:24:28.743Z,-1.90
2022-12-17T14:26:59.154Z,-1.90
2022-12-17T14:29:30.474Z,-1.90
2022-12-17T14:32:00.307Z,-2.00
2022-12-17T14:34:27.351Z,-2.00
2022-12-17T14:36:56.832Z,-2.10
2022-12-17T14:39:32.829Z,-2.10
2022-12-17T14:42:12.538Z,-2.10
2022-12-17T14:45:00.851Z,-2.20
2022-12-17T14:47:30.654Z,-2.20
2022-12-17T14:50:07.893Z,-2.30
2022-12-17T14:52:44.507Z,-2.30
2022-12-17T14:55:30.002Z,-2.40
2022-12-17T14:58:11.750Z,-2.50
2022-12-17T15:00:50.319Z,-2.60
2022-12-17T15:03:29.757Z,-2.60
2022-12-17T15:06:02.362Z,-2.70
2022-12-17T15:08:33.924Z,-2.70
2022-12-17T15:11:00.744Z,-2.80
2022-12-17T15:13:27.401Z,-2.80
2022-12-17T15:15:53.979Z,-2.90
2022-12-17T15:18:21.053Z,-2.90
2022-12-17T15:20:47.682Z,-3.10
2022-12-17T15:23:17.095Z,-3.10
2022-12-17T15:25:47.056Z,-3.20
2022-12-17T15:28:15.957Z,-3.30
2022-12-17T15:30:42.829Z,-3.40
2022-12-17T15:33:10.838Z,-3.40
2022-12-17T15:35:38.354Z,-3.60
2022-12-17T15:38:06.150Z,-3.50
2022-12-17T15:40:33.620Z,-3.60
2022-12-17T15:43:05.850Z,-3.70
2022-12-17T15:45:33.161Z,-3.80
2022-12-17T15:47:59.920Z,-3.80
2022-12-17T15:50:26.512Z,-3.80
2022-12-17T15:52:53.064Z,-4.00
2022-12-17T15:55:19.846Z,-4.00
2022-12-17T15:57:46.437Z,-4.00
2022-12-17T16:00:13.618Z,-4.10
2022-12-17T16:02:40.626Z,-4.20
2022-12-17T16:05:07.792Z,-4.20
2022-12-17T16:07:34.490Z,-4.20
2022-12-17T16:10:05.077Z,-4.30
2022-12-17T16:12:32.269Z,-4.30
2022-12-17T16:14:58.863Z,-4.40
2022-12-17T16:17:25.468Z,-4.40
2022-12-17T16:19:52.039Z,-4.40
2022-12-17T16:22:18.693Z,-4.50
2022-12-17T16:24:45.537Z,-4.60
2022-12-17T16:27:12.492Z,-4.60
2022-12-17T16:29:39.070Z,-4.70
2022-12-17T16:32:05.853Z,-4.70
2022-12-17T16:34:32.438Z,-4.70
2022-12-17T16:36:59.034Z,-4.70
2022-12-17T16:39:25.625Z,-4.80
2022-12-17T16:41:52.243Z,-4.90
2022-12-17T16:44:19.058Z,-4.90
2022-12-17T16:46:45.700Z,-5.00
2022-12-17T16:49:14.086Z,-5.00
2022-12-17T16:51:41.185Z,-5.00
2022-12-17T16:54:10.721Z,-5.00
2022-12-17T16:56:40.268Z,-5.00
2022-12-17T16:59:08.172Z,-5.10
2022-12-17T17:01:35.817Z,-5.00
2022-12-17T17:04:04.358Z,-5.00
2022-12-17T17:06:33.860Z,-5.00
2022-12-17T17:09:04.062Z,-5.00
2022-12-17T17:11:30.831Z,-5.20
2022-12-17T17:13:57.556Z,-5.50
2022-12-17T17:16:24.893Z,-5.50
2022-12-17T17:18:52.359Z,-5.40
2022-12-17T17:21:18.907Z,-5.50
2022-12-17T17:23:51.516Z,-5.50
2022-12-17T17:26:18.212Z,-5.50
2022-12-17T17:28:48.639Z,-5.60
2022-12-17T17:31:16.996Z,-5.60
2022-12-17T17:33:46.136Z,-5.70
2022-12-17T17:36:17.001Z,-5.70
2022-12-17T17:38:43.998Z,-5.70
2022-12-17T17:41:12.940Z,-5.70
2022-12-17T17:43:39.785Z,-5.70
2022-12-17T17:46:11.442Z,-5.70
2022-12-17T17:48:38.879Z,-5.70
2022-12-17T17:51:18.020Z,-5.80
2022-12-17T17:53:50.150Z,-5.90
2022-12-17T17:56:19.689Z,-5.90
2022-12-17T17:58:51.537Z,-6.00
2022-12-17T18:01:22.270Z,-6.20
2022-12-17T18:03:49.170Z,-6.30
2022-12-17T18:06:15.976Z,-6.30
2022-12-17T18:08:42.999Z,-6.20
2022-12-17T18:11:12.153Z,-6.30
2022-12-17T18:13:39.775Z,-6.20
2022-12-17T18:16:06.722Z,-6.30
2022-12-17T18:18:33.335Z,-6.30
2022-12-17T18:21:11.486Z,-6.50
2022-12-17T18:23:39.677Z,-6.50
2022-12-17T18:26:10.957Z,-6.50
2022-12-17T18:28:38.750Z,-6.40
2022-12-17T18:31:15.560Z,-6.50
2022-12-17T18:33:45.767Z,-6.60
2022-12-17T18:36:18.321Z,-6.60
2022-12-17T18:38:45.123Z,-6.70
2022-12-17T18:41:14.217Z,-6.70
2022-12-17T18:43:40.801Z,-6.80
2022-12-17T18:46:07.374Z,-6.80
2022-12-17T18:48:34.018Z,-6.80
2022-12-17T18:51:06.862Z,-6.90
2022-12-17T18:53:33.458Z,-6.90
2022-12-17T18:56:07.480Z,-6.80
2022-12-17T18:58:34.159Z,-6.90
2022-12-17T19:01:00.975Z,-6.90
2022-12-17T19:03:27.607Z,-6.80
2022-12-17T19:05:54.543Z,-6.70
2022-12-17T19:08:21.476Z,-6.60
2022-12-17T19:10:48.067Z,-6.60
2022-12-17T19:13:14.651Z,-6.50
2022-12-17T19:15:41.265Z,-6.50
2022-12-17T19:18:07.878Z,-6.40
2022-12-17T19:20:34.490Z,-6.40
2022-12-17T19:23:01.065Z,-6.30
2022-12-17T19:25:27.646Z,-6.20
2022-12-17T19:27:54.243Z,-6.10
2022-12-17T19:30:20.817Z,-6.00
2022-12-17T19:32:47.414Z,-5.70
2022-12-17T19:35:14.062Z,-5.50
2022-12-17T19:37:40.630Z,-5.30
2022-12-17T19:40:07.850Z,-5.10
2022-12-17T19:42:37.459Z,-5.10
2022-12-17T19:45:04.881Z,-5.20
2022-12-17T19:47:31.449Z,-5.10
2022-12-17T19:49:58.051Z,-5.10
2022-12-17T19:52:24.637Z,-5.10
2022-12-17T19:54:51.229Z,-4.90
2022-12-17T19:57:17.829Z,-4.90
2022-12-17T19:59:44.418Z,-4.90
2022-12-17T20:02:11.997Z,-5.00
2022-12-17T20:04:38.750Z,-4.80
2022-12-17T20:07:05.349Z,-4.70
2022-12-17T20:09:31.935Z,-4.80
2022-12-17T20:11:58.497Z,-4.90
2022-12-17T20:14:27.836Z,-4.80
2022-12-17T20:16:59.479Z,-5.00
2022-12-17T20:19:28.339Z,-5.00
2022-12-17T20:21:54.937Z,-5.00
2022-12-17T20:24:27.199Z,-5.00
2022-12-17T20:26:57.308Z,-5.00
2022-12-17T20:29:25.030Z,-4.90
2022-12-17T20:31:53.337Z,-5.00
2022-12-17T20:34:20.733Z,-5.00
2022-12-17T20:36:47.332Z,-4.90
2022-12-17T20:39:14.006Z,-4.90
2022-12-17T20:41:40.633Z,-5.00
2022-12-17T20:44:10.912Z,-4.90
2022-12-17T20:46:37.644Z,-5.10
2022-12-17T20:49:05.540Z,-5.20
2022-12-17T20:51:32.529Z,-5.00
2022-12-17T20:54:00.161Z,-5.10
2022-12-17T20:56:30.297Z,-5.00
2022-12-17T20:59:02.267Z,-5.00
2022-12-17T21:01:31.451Z,-5.00
2022-12-17T21:03:58.865Z,-5.00
2022-12-17T21:06:28.400Z,-5.00
2022-12-17T21:08:55.762Z,-5.00
2022-12-17T21:11:24.794Z,-4.90
2022-12-17T21:13:52.024Z,-4.90
2022-12-17T21:16:21.813Z,-4.90
2022-12-17T21:18:48.802Z,-4.80
2022-12-17T21:21:18.257Z,-4.70
2022-12-17T21:23:46.536Z,-4.90
2022-12-17T21:26:21.843Z,-5.10
2022-12-17T21:28:50.986Z,-4.90
2022-12-17T21:31:26.243Z,-4.80
2022-12-17T21:33:57.128Z,-4.80
2022-12-17T21:36:26.099Z,-4.80
2022-12-17T21:38:53.958Z,-4.80
2022-12-17T21:41:23.078Z,-4.80
2022-12-17T21:43:57.590Z,-4.90
2022-12-17T21:46:25.108Z,-4.80
2022-12-17T21:48:51.721Z,-4.80
2022-12-17T21:51:18.305Z,-4.90
2022-12-17T21:53:45.271Z,-4.90
2022-12-17T21:56:15.207Z,-4.90
2022-12-17T21:58:43.459Z,-4.80
2022-12-17T22:01:19.402Z,-4.90
2022-12-17T22:03:53.597Z,-4.80
2022-12-17T22:06:21.591Z,-4.80
2022-12-17T22:08:49.502Z,-4.80
2022-12-17T22:11:22.472Z,-4.80
2022-12-17T22:13:52.399Z,-4.70
2022-12-17T22:16:19.036Z,-4.70
2022-12-17T22:18:45.640Z,-4.70
2022-12-17T22:21:12.240Z,-4.70
2022-12-17T22:23:38.878Z,-4.70
2022-12-17T22:26:09.782Z,-4.60
2022-12-17T22:28:37.425Z,-4.50
2022-12-17T22:31:05.767Z,-4.50
2022-12-17T22:34:16.212Z,-4.50
2022-12-17T22:38:56.837Z,-4.50
2022-12-17T22:44:28.579Z,-4.50
2022-12-17T22:44:41.440Z,-4.20
2022-12-17T22:44:53.241Z,-4.20
2022-12-17T22:47:20.723Z,-4.00
2022-12-17T22:49:47.382Z,-4.10
2022-12-17T22:52:14.121Z,-4.10
2022-12-17T22:54:43.110Z,-4.10
2022-12-17T22:57:36.204Z,-4.20
2022-12-17T22:59:56.742Z,-4.30
2022-12-17T23:02:23.574Z,-4.30
2022-12-17T23:04:50.206Z,-4.30
2022-12-17T23:07:16.844Z,-4.30
2022-12-17T23:09:43.421Z,-4.30
2022-12-17T23:12:10.013Z,-4.20
2022-12-17T23:14:36.574Z,-4.10
2022-12-17T23:17:03.194Z,-4.10
2022-12-17T23:19:29.753Z,-4.00
2022-12-17T23:21:56.317Z,-3.90
2022-12-17T23:24:22.893Z,-4.10
2022-12-17T23:26:49.488Z,-4.10
2022-12-17T23:29:19.437Z,-4.00
2022-12-17T23:31:47.652Z,-4.00
2022-12-17T23:34:14.345Z,-4.00
2022-12-17T23:36:40.974Z,-4.10
2022-12-17T23:39:07.584Z,-4.10
2022-12-17T23:41:34.503Z,-3.90
2022-12-17T23:44:01.456Z,-3.90
2022-12-17T23:46:29.410Z,-3.90
2022-12-17T23:48:56.098Z,-3.90
2022-12-17T23:51:23.877Z,-3.80
2022-12-17T23:53:50.750Z,-3.80
2022-12-17T23:56:18.800Z,-3.90
2022-12-17T23:58:46.956Z,-4.00
